This is the latest recevied weather packets stored in our database for station/object SQ2WB-13. If no packets are shown the sender has not sent any weather packets the latest 10 day(s).
| Time | Temp. | Humidity | Pressure | Rain* | Wind** | Luminosity | Snow |
|---|---|---|---|---|---|---|---|
| 1787592602 | 17.78° C | 82% | 1011.5 hPa | 0 mm | - | - | - |
| 1787591702 | 17.78° C | 81% | 1011.5 hPa | 0 mm | - | - | - |
| 1787588101 | 18.89° C | 71% | 1011.5 hPa | 0 mm | - | - | - |
| 1787587203 | 20.56° C | 67% | 1011.8 hPa | 0 mm | - | - | - |
| 1787586302 | 20.56° C | 59% | 1011.8 hPa | 0 mm | - | - | - |
| 1787585403 | 21.67° C | 60% | 1011.5 hPa | 0 mm | - | - | - |
| 1787584501 | 21.67° C | 60% | 1011.8 hPa | 0 mm | - | - | - |
| 1787583601 | 20.56° C | 68% | 1011.8 hPa | 0 mm | - | - | - |
| 1787582701 | 20.56° C | 68% | 1011.8 hPa | 0 mm | - | - | - |
| 1787581801 | 20.56° C | 65% | 1011.5 hPa | 0 mm | - | - | - |
| 1787580901 | 20.56° C | 62% | 1011.5 hPa | 0 mm | - | - | - |
| 1787580001 | 20.56° C | 64% | 1011.5 hPa | 0 mm | - | - | - |
| 1787579103 | 20.56° C | 62% | 1011.5 hPa | 0 mm | - | - | - |
| 1787578202 | 20.56° C | 65% | 1011.5 hPa | 0 mm | - | - | - |
| 1787577301 | 20.56° C | 64% | 1011.5 hPa | 0 mm | - | - | - |
| 1787576401 | 20.56° C | 64% | 1011.5 hPa | 0 mm | - | - | - |
| 1787575502 | 21.67° C | 62% | 1011.5 hPa | 0 mm | - | - | - |
| 1787574601 | 21.67° C | 66% | 1011.5 hPa | 0 mm | - | - | - |
| 1787573701 | 20.56° C | 66% | 1011.5 hPa | 0 mm | - | - | - |
| 1787572801 | 21.67° C | 65% | 1011.5 hPa | 0 mm | - | - | - |
| 1787571901 | 20.56° C | 68% | 1011.5 hPa | 0 mm | - | - | - |
| 1787571002 | 20° C | 69% | 1011.5 hPa | 0 mm | - | - | - |
| 1787570102 | 20.56° C | 67% | 1011.5 hPa | 0 mm | - | - | - |
| 1787569201 | 20.56° C | 66% | 1011.5 hPa | 0 mm | - | - | - |
| 1787568301 | 20.56° C | 66% | 1011.5 hPa | 0 mm | - | - | - |
* Rain latest hour (hover to see other rain measurements)
** Current wind speed in m/s (hover to see current wind gust speed)